METAR Data

Data at: 0723 UTC 28 Sep 2022

METAR for:KPVD (Providence/Green Mem, RI, US)
Text:KPVD 280651Z 27005KT 10SM CLR 12/08 A2996 RMK AO2 SLP146 T01170083
Temperature: 11.7°C ( 53°F)
Dewpoint: 8.3°C ( 47°F) [RH = 80%]
Pressure (altimeter):29.96 inches Hg (1014.6 mb) [Sea level pressure: 1014.6 mb]
Winds:from the W (270 degrees) at 6 MPH (5 knots; 2.6 m/s)
Visibility:10 or more sm (16+ km)
Ceiling:at least 12,000 feet AGL
Clouds:sky clear below 12,000 feet AGL